Tuesday, November 21, 2017, 10:49 AM EST
Back to Local

KHUL, Houlton Int'l Airport

Location: Houlton, ME, United States Lat: 46.117
Local Time: 10:49 AM EST (15:49 GMT) Lon: -67.8
Time Zone: US/Eastern Elev: 492 ft

Show me the last for .
Show Decoded

2017-11-21 09:53 METAR KHUL 211453Z AUTO 16007KT 10SM FEW041 M04/M12 A3002 RMK AO2 SLP174
                 T10441117 58005 =
2017-11-21 08:53 METAR KHUL 211353Z AUTO 00000KT 10SM CLR M06/M12 A3002 RMK AO2 SLP177 T10611122
                 =
2017-11-21 07:53 METAR KHUL 211253Z AUTO 20004KT 10SM CLR M09/M13 A3004 RMK AO2 SLP182 T10891128
                 =
2017-11-21 06:53 METAR KHUL 211153Z AUTO 21004KT 10SM CLR M11/M14 A3003 RMK AO2 SLP180 T11061139
                 11100 21117 51014 =
2017-11-21 05:53 METAR KHUL 211053Z AUTO 20005KT 10SM CLR M11/M14 A3002 RMK AO2 SLP178 T11061144
                 =
2017-11-21 04:53 METAR KHUL 210953Z AUTO 18004KT 10SM CLR M11/M14 A3000 RMK AO2 SLP169 T11111144
                 =
2017-11-21 03:53 METAR KHUL 210853Z AUTO 25006KT 10SM CLR M10/M14 A2999 RMK AO2 SLP165 T11001144
                 51022 =
2017-11-21 02:53 METAR KHUL 210753Z AUTO 25005KT 10SM CLR M11/M15 A2996 RMK AO2 SLP157 T11111150
                 =
2017-11-21 01:53 METAR KHUL 210653Z AUTO 26005KT 10SM CLR M10/M15 A2995 RMK AO2 SLP152 T11001150
                 =
2017-11-21 00:53 METAR KHUL 210553Z AUTO 29005KT 10SM CLR M11/M15 A2992 RMK AO2 SLP142 T11061150
                 11083 21106 51016 =
2017-11-20 23:53 METAR KHUL 210453Z AUTO 25004KT 10SM CLR M11/M15 A2991 RMK AO2 SLP138 T11061150
                 410111106 =
2017-11-20 22:53 METAR KHUL 210353Z AUTO 27006KT 10SM CLR M10/M15 A2990 RMK AO2 SLP133 T11001150
                 =
2017-11-20 21:53 METAR KHUL 210253Z AUTO 27007KT 10SM CLR M10/M15 A2988 RMK AO2 SLP126 T11001150
                 53025 =
2017-11-20 20:53 METAR KHUL 210153Z AUTO VRB05KT 10SM CLR M09/M15 A2985 RMK AO2 SLP117 T10941150
                 =
2017-11-20 19:53 METAR KHUL 210053Z AUTO 29011KT 10SM FEW034 M09/M16 A2983 RMK AO2 SLP110
                 T10891156 =
2017-11-20 18:53 METAR KHUL 202353Z AUTO 28012G20KT 10SM CLR M08/M15 A2980 RMK AO2 SLP101
                 T10831150 11017 21083 53039 =
2017-11-20 17:53 METAR KHUL 202253Z AUTO 28014G19KT 10SM CLR M07/M16 A2976 RMK AO2 SLP087
                 T10721156 =
2017-11-20 16:53 METAR KHUL 202153Z AUTO 26010KT 10SM BKN040 M06/M14 A2972 RMK AO2 SLP073
                 T10561139 =
2017-11-20 15:53 METAR KHUL 202053Z AUTO 28012G21KT 250V310 10SM BKN044 BKN050 M05/M14 A2969 RMK
                 AO2 SLP060 T10501139 53028 =
2017-11-20 14:53 METAR KHUL 201953Z AUTO 27014G18KT 10SM BKN040 BKN048 OVC060 M04/M12 A2966 RMK
                 AO2 PK WND 27027/1932 SLP051 T10391122 =
2017-11-20 13:53 METAR KHUL 201853Z AUTO 26013G22KT 10SM FEW038 BKN047 OVC075 M03/M12 A2962 RMK
                 AO2 PK WND 28029/1836 SLP036 T10281117 =
2017-11-20 12:53 METAR KHUL 201753Z AUTO 26013G21KT 10SM FEW039 BKN070 OVC100 M02/M09 A2960 RMK
                 AO2 PK WND 27026/1713 SLP030 T10171094 11011 21033 51007 =
2017-11-20 11:53 METAR KHUL 201653Z AUTO 29014G25KT 250V310 10SM FEW039 OVC080 M02/M10 A2959 RMK
                 AO2 SLP027 T10171100 =
2017-11-20 10:53 METAR KHUL 201553Z AUTO 28016G20KT 10SM OVC037 M02/M09 A2959 RMK AO2 SLP027
                 T10171089 =

Support USWX by starting your Amazon purchase here.